sensor_id;sensor_type;location;lat;lon;timestamp;temperature;humidity
7796;DHT22;3942;51.518;6.912;2022-10-16T00:00:14;16.50;99.90
7796;DHT22;3942;51.518;6.912;2022-10-16T00:05:16;16.20;99.90
7796;DHT22;3942;51.518;6.912;2022-10-16T00:10:19;16.10;99.90
7796;DHT22;3942;51.518;6.912;2022-10-16T00:15:21;16.00;99.90
7796;DHT22;3942;51.518;6.912;2022-10-16T00:20:23;16.30;99.90
7796;DHT22;3942;51.518;6.912;2022-10-16T00:25:26;16.00;99.90
7796;DHT22;3942;51.518;6.912;2022-10-16T00:30:28;16.20;99.90
7796;DHT22;3942;51.518;6.912;2022-10-16T00:40:34;15.90;99.90
7796;DHT22;3942;51.518;6.912;2022-10-16T00:45:36;16.10;99.90
7796;DHT22;3942;51.518;6.912;2022-10-16T00:50:38;15.70;99.90
7796;DHT22;3942;51.518;6.912;2022-10-16T00:55:45;15.90;99.90
7796;DHT22;3942;51.518;6.912;2022-10-16T01:00:47;16.20;99.90
7796;DHT22;3942;51.518;6.912;2022-10-16T01:05:53;15.90;99.90
7796;DHT22;3942;51.518;6.912;2022-10-16T01:11:07;15.80;99.90
7796;DHT22;3942;51.518;6.912;2022-10-16T01:16:14;16.00;99.90
7796;DHT22;3942;51.518;6.912;2022-10-16T01:21:22;15.80;99.90
7796;DHT22;3942;51.518;6.912;2022-10-16T01:26:35;15.80;99.90
7796;DHT22;3942;51.518;6.912;2022-10-16T01:31:44;15.70;99.90
7796;DHT22;3942;51.518;6.912;2022-10-16T01:36:52;15.80;99.90
7796;DHT22;3942;51.518;6.912;2022-10-16T01:41:58;15.50;99.90
7796;DHT22;3942;51.518;6.912;2022-10-16T01:47:04;15.40;99.90
7796;DHT22;3942;51.518;6.912;2022-10-16T01:52:10;15.60;99.90
7796;DHT22;3942;51.518;6.912;2022-10-16T01:57:14;15.70;99.90
7796;DHT22;3942;51.518;6.912;2022-10-16T02:02:20;15.60;99.90
7796;DHT22;3942;51.518;6.912;2022-10-16T02:07:23;15.60;99.90
7796;DHT22;3942;51.518;6.912;2022-10-16T02:12:27;15.50;99.90
7796;DHT22;3942;51.518;6.912;2022-10-16T02:17:31;15.60;99.90
7796;DHT22;3942;51.518;6.912;2022-10-16T02:22:36;15.60;99.90
7796;DHT22;3942;51.518;6.912;2022-10-16T02:32:46;15.50;99.90
7796;DHT22;3942;51.518;6.912;2022-10-16T02:37:50;15.70;99.90
7796;DHT22;3942;51.518;6.912;2022-10-16T02:42:54;15.20;99.90
7796;DHT22;3942;51.518;6.912;2022-10-16T02:47:57;15.50;99.90
7796;DHT22;3942;51.518;6.912;2022-10-16T02:52:59;15.30;99.90
7796;DHT22;3942;51.518;6.912;2022-10-16T02:58:01;15.50;99.90
7796;DHT22;3942;51.518;6.912;2022-10-16T03:03:04;15.10;99.90
7796;DHT22;3942;51.518;6.912;2022-10-16T03:08:06;15.60;99.90
7796;DHT22;3942;51.518;6.912;2022-10-16T03:13:08;15.60;99.90
7796;DHT22;3942;51.518;6.912;2022-10-16T03:18:11;15.60;99.90
7796;DHT22;3942;51.518;6.912;2022-10-16T03:23:13;15.70;99.90
7796;DHT22;3942;51.518;6.912;2022-10-16T03:28:15;15.50;99.90
7796;DHT22;3942;51.518;6.912;2022-10-16T03:33:18;14.90;99.90
7796;DHT22;3942;51.518;6.912;2022-10-16T03:43:22;14.90;99.90
7796;DHT22;3942;51.518;6.912;2022-10-16T03:48:25;15.00;99.90
7796;DHT22;3942;51.518;6.912;2022-10-16T03:53:27;15.50;99.90
7796;DHT22;3942;51.518;6.912;2022-10-16T03:58:29;15.20;99.90
7796;DHT22;3942;51.518;6.912;2022-10-16T04:03:32;14.70;99.90
7796;DHT22;3942;51.518;6.912;2022-10-16T04:08:34;14.80;99.90
7796;DHT22;3942;51.518;6.912;2022-10-16T04:18:40;14.80;99.90
7796;DHT22;3942;51.518;6.912;2022-10-16T04:23:42;14.90;99.90
7796;DHT22;3942;51.518;6.912;2022-10-16T04:28:44;15.30;99.90
7796;DHT22;3942;51.518;6.912;2022-10-16T04:33:47;14.90;99.90
7796;DHT22;3942;51.518;6.912;2022-10-16T04:38:49;14.70;99.90
7796;DHT22;3942;51.518;6.912;2022-10-16T04:43:51;14.70;99.90
7796;DHT22;3942;51.518;6.912;2022-10-16T04:48:54;14.90;99.90
7796;DHT22;3942;51.518;6.912;2022-10-16T04:53:56;15.10;99.90
7796;DHT22;3942;51.518;6.912;2022-10-16T04:58:58;15.00;99.90
7796;DHT22;3942;51.518;6.912;2022-10-16T05:04:01;14.70;99.90
7796;DHT22;3942;51.518;6.912;2022-10-16T05:09:03;14.50;99.90
7796;DHT22;3942;51.518;6.912;2022-10-16T05:14:05;14.80;99.90
7796;DHT22;3942;51.518;6.912;2022-10-16T05:19:08;14.90;99.90
7796;DHT22;3942;51.518;6.912;2022-10-16T05:24:10;14.70;99.90
7796;DHT22;3942;51.518;6.912;2022-10-16T05:29:12;14.60;99.90
7796;DHT22;3942;51.518;6.912;2022-10-16T05:34:15;16.00;99.90
7796;DHT22;3942;51.518;6.912;2022-10-16T05:39:17;14.60;99.90
7796;DHT22;3942;51.518;6.912;2022-10-16T05:49:22;15.00;99.90
7796;DHT22;3942;51.518;6.912;2022-10-16T05:54:24;15.00;99.90
7796;DHT22;3942;51.518;6.912;2022-10-16T05:59:26;14.80;99.90
7796;DHT22;3942;51.518;6.912;2022-10-16T06:04:29;14.80;99.90
7796;DHT22;3942;51.518;6.912;2022-10-16T06:09:31;14.60;99.90
7796;DHT22;3942;51.518;6.912;2022-10-16T06:14:33;15.50;99.90
7796;DHT22;3942;51.518;6.912;2022-10-16T06:19:36;14.80;99.90
7796;DHT22;3942;51.518;6.912;2022-10-16T06:24:38;15.10;99.90
7796;DHT22;3942;51.518;6.912;2022-10-16T06:29:39;15.00;99.90
7796;DHT22;3942;51.518;6.912;2022-10-16T06:34:44;14.90;99.90
7796;DHT22;3942;51.518;6.912;2022-10-16T06:39:46;15.10;99.90
7796;DHT22;3942;51.518;6.912;2022-10-16T06:49:52;15.20;99.90
7796;DHT22;3942;51.518;6.912;2022-10-16T06:59:56;15.00;99.90
7796;DHT22;3942;51.518;6.912;2022-10-16T07:15:04;15.30;99.90
7796;DHT22;3942;51.518;6.912;2022-10-16T07:20:09;15.20;99.90
7796;DHT22;3942;51.518;6.912;2022-10-16T07:25:11;15.40;99.90
7796;DHT22;3942;51.518;6.912;2022-10-16T07:40:18;16.40;99.90
7796;DHT22;3942;51.518;6.912;2022-10-16T07:45:20;16.60;99.90
7796;DHT22;3942;51.518;6.912;2022-10-16T07:50:23;16.60;99.90
7796;DHT22;3942;51.518;6.912;2022-10-16T07:55:25;16.70;99.90
7796;DHT22;3942;51.518;6.912;2022-10-16T08:00:27;17.20;99.90
7796;DHT22;3942;51.518;6.912;2022-10-16T08:05:31;17.30;99.90
7796;DHT22;3942;51.518;6.912;2022-10-16T08:10:34;17.80;99.90
7796;DHT22;3942;51.518;6.912;2022-10-16T08:35:52;23.60;99.90
7796;DHT22;3942;51.518;6.912;2022-10-16T08:40:57;31.90;1.00
7796;DHT22;3942;51.518;6.912;2022-10-16T08:46:19;36.10;99.90
7796;DHT22;3942;51.518;6.912;2022-10-16T08:51:24;36.90;99.90
7796;DHT22;3942;51.518;6.912;2022-10-16T08:56:27;37.60;99.90
7796;DHT22;3942;51.518;6.912;2022-10-16T09:01:37;36.50;99.90
7796;DHT22;3942;51.518;6.912;2022-10-16T09:06:45;35.80;47.00
7796;DHT22;3942;51.518;6.912;2022-10-16T09:11:51;33.90;99.90
7796;DHT22;3942;51.518;6.912;2022-10-16T09:22:04;35.30;99.90
7796;DHT22;3942;51.518;6.912;2022-10-16T09:27:14;37.70;99.90
7796;DHT22;3942;51.518;6.912;2022-10-16T09:32:19;38.40;99.90
7796;DHT22;3942;51.518;6.912;2022-10-16T09:37:23;36.30;1.00
7796;DHT22;3942;51.518;6.912;2022-10-16T09:42:30;35.90;1.00
7796;DHT22;3942;51.518;6.912;2022-10-16T09:47:39;31.10;1.00
7796;DHT22;3942;51.518;6.912;2022-10-16T09:52:42;25.50;1.00
7796;DHT22;3942;51.518;6.912;2022-10-16T10:02:53;22.40;1.00
7796;DHT22;3942;51.518;6.912;2022-10-16T10:07:58;22.10;99.90
7796;DHT22;3942;51.518;6.912;2022-10-16T10:13:01;21.70;99.90
7796;DHT22;3942;51.518;6.912;2022-10-16T10:18:16;21.40;99.90
7796;DHT22;3942;51.518;6.912;2022-10-16T10:23:21;21.40;99.90
7796;DHT22;3942;51.518;6.912;2022-10-16T10:28:34;21.60;99.90
7796;DHT22;3942;51.518;6.912;2022-10-16T10:33:43;22.10;99.90
7796;DHT22;3942;51.518;6.912;2022-10-16T10:38:50;22.00;99.90
7796;DHT22;3942;51.518;6.912;2022-10-16T10:44:03;21.60;99.90
7796;DHT22;3942;51.518;6.912;2022-10-16T10:49:20;21.70;35.40
7796;DHT22;3942;51.518;6.912;2022-10-16T10:54:35;21.40;99.90
7796;DHT22;3942;51.518;6.912;2022-10-16T11:05:41;21.70;99.90
7796;DHT22;3942;51.518;6.912;2022-10-16T11:10:49;21.30;1.00
7796;DHT22;3942;51.518;6.912;2022-10-16T11:15:57;21.10;1.00
7796;DHT22;3942;51.518;6.912;2022-10-16T11:21:04;20.80;1.00
7796;DHT22;3942;51.518;6.912;2022-10-16T11:26:13;20.60;1.00
7796;DHT22;3942;51.518;6.912;2022-10-16T11:31:19;20.80;69.20
7796;DHT22;3942;51.518;6.912;2022-10-16T11:36:27;20.50;1.00
7796;DHT22;3942;51.518;6.912;2022-10-16T11:41:37;20.30;1.00
7796;DHT22;3942;51.518;6.912;2022-10-16T11:46:48;19.90;1.00
7796;DHT22;3942;51.518;6.912;2022-10-16T11:51:58;19.80;54.10
7796;DHT22;3942;51.518;6.912;2022-10-16T12:02:28;20.20;55.40
7796;DHT22;3942;51.518;6.912;2022-10-16T12:07:36;20.20;1.00
7796;DHT22;3942;51.518;6.912;2022-10-16T12:12:40;20.10;99.90
7796;DHT22;3942;51.518;6.912;2022-10-16T12:22:49;20.10;1.00
7796;DHT22;3942;51.518;6.912;2022-10-16T12:27:57;20.20;1.00
7796;DHT22;3942;51.518;6.912;2022-10-16T12:33:00;20.40;1.00
7796;DHT22;3942;51.518;6.912;2022-10-16T12:38:16;20.20;1.00
7796;DHT22;3942;51.518;6.912;2022-10-16T12:43:41;20.00;1.00
7796;DHT22;3942;51.518;6.912;2022-10-16T12:48:44;20.00;1.00
7796;DHT22;3942;51.518;6.912;2022-10-16T12:53:58;19.80;99.90
7796;DHT22;3942;51.518;6.912;2022-10-16T12:59:14;19.90;1.00
7796;DHT22;3942;51.518;6.912;2022-10-16T13:04:26;19.90;1.00
7796;DHT22;3942;51.518;6.912;2022-10-16T13:09:40;19.70;1.00
7796;DHT22;3942;51.518;6.912;2022-10-16T13:14:58;19.80;1.00
7796;DHT22;3942;51.518;6.912;2022-10-16T13:20:05;19.80;1.00
7796;DHT22;3942;51.518;6.912;2022-10-16T13:25:21;19.70;99.90
7796;DHT22;3942;51.518;6.912;2022-10-16T13:30:26;19.70;99.90
7796;DHT22;3942;51.518;6.912;2022-10-16T13:35:32;19.60;1.00
7796;DHT22;3942;51.518;6.912;2022-10-16T13:40:34;19.50;95.30
7796;DHT22;3942;51.518;6.912;2022-10-16T13:45:37;19.20;99.90
7796;DHT22;3942;51.518;6.912;2022-10-16T13:50:39;19.30;99.90
7796;DHT22;3942;51.518;6.912;2022-10-16T14:00:55;19.50;99.90
7796;DHT22;3942;51.518;6.912;2022-10-16T14:06:00;19.60;99.90
7796;DHT22;3942;51.518;6.912;2022-10-16T14:11:03;19.90;99.90
7796;DHT22;3942;51.518;6.912;2022-10-16T14:16:09;19.60;99.90
7796;DHT22;3942;51.518;6.912;2022-10-16T14:21:14;19.30;99.90
7796;DHT22;3942;51.518;6.912;2022-10-16T14:26:20;19.20;99.90
7796;DHT22;3942;51.518;6.912;2022-10-16T14:31:29;19.20;99.90
7796;DHT22;3942;51.518;6.912;2022-10-16T14:36:33;19.10;99.90
7796;DHT22;3942;51.518;6.912;2022-10-16T14:41:43;19.00;99.90
7796;DHT22;3942;51.518;6.912;2022-10-16T14:46:47;19.30;1.00
7796;DHT22;3942;51.518;6.912;2022-10-16T14:56:54;19.30;1.00
7796;DHT22;3942;51.518;6.912;2022-10-16T15:01:58;19.30;1.00
7796;DHT22;3942;51.518;6.912;2022-10-16T15:07:00;19.30;1.00
7796;DHT22;3942;51.518;6.912;2022-10-16T15:17:07;19.20;1.00
7796;DHT22;3942;51.518;6.912;2022-10-16T15:22:11;19.20;1.00
7796;DHT22;3942;51.518;6.912;2022-10-16T15:27:12;19.00;1.00
7796;DHT22;3942;51.518;6.912;2022-10-16T15:32:16;19.00;1.00
7796;DHT22;3942;51.518;6.912;2022-10-16T15:37:17;18.90;1.00
7796;DHT22;3942;51.518;6.912;2022-10-16T15:42:19;18.80;1.00
7796;DHT22;3942;51.518;6.912;2022-10-16T15:47:23;18.80;61.90
7796;DHT22;3942;51.518;6.912;2022-10-16T15:52:25;18.80;99.90
7796;DHT22;3942;51.518;6.912;2022-10-16T15:57:28;18.90;99.90
7796;DHT22;3942;51.518;6.912;2022-10-16T16:07:33;18.70;32.50
7796;DHT22;3942;51.518;6.912;2022-10-16T16:12:36;18.70;99.90
7796;DHT22;3942;51.518;6.912;2022-10-16T16:17:39;18.70;1.00
7796;DHT22;3942;51.518;6.912;2022-10-16T16:32:47;18.50;1.00
7796;DHT22;3942;51.518;6.912;2022-10-16T16:37:49;18.60;99.90
7796;DHT22;3942;51.518;6.912;2022-10-16T16:42:51;18.40;99.90
7796;DHT22;3942;51.518;6.912;2022-10-16T16:47:54;18.50;99.90
7796;DHT22;3942;51.518;6.912;2022-10-16T16:57:58;18.30;1.00
7796;DHT22;3942;51.518;6.912;2022-10-16T17:08:06;18.00;99.90
7796;DHT22;3942;51.518;6.912;2022-10-16T17:13:08;17.70;1.00
7796;DHT22;3942;51.518;6.912;2022-10-16T17:18:11;17.70;99.90
7796;DHT22;3942;51.518;6.912;2022-10-16T17:28:16;17.80;1.00
7796;DHT22;3942;51.518;6.912;2022-10-16T17:33:19;17.70;1.00
7796;DHT22;3942;51.518;6.912;2022-10-16T17:43:23;17.40;1.00
7796;DHT22;3942;51.518;6.912;2022-10-16T17:48:27;17.00;99.90
7796;DHT22;3942;51.518;6.912;2022-10-16T17:53:28;17.20;99.90
7796;DHT22;3942;51.518;6.912;2022-10-16T18:03:34;17.50;99.90
7796;DHT22;3942;51.518;6.912;2022-10-16T18:08:36;17.60;99.90
7796;DHT22;3942;51.518;6.912;2022-10-16T18:13:38;17.50;1.00
7796;DHT22;3942;51.518;6.912;2022-10-16T18:18:42;17.50;1.00
7796;DHT22;3942;51.518;6.912;2022-10-16T18:28:51;17.30;1.00
7796;DHT22;3942;51.518;6.912;2022-10-16T18:33:54;17.30;12.80
7796;DHT22;3942;51.518;6.912;2022-10-16T18:38:57;17.30;99.90
7796;DHT22;3942;51.518;6.912;2022-10-16T18:49:03;17.20;99.90
7796;DHT22;3942;51.518;6.912;2022-10-16T18:54:07;17.20;99.90
7796;DHT22;3942;51.518;6.912;2022-10-16T18:59:09;17.30;99.90
7796;DHT22;3942;51.518;6.912;2022-10-16T19:04:14;17.20;99.90
7796;DHT22;3942;51.518;6.912;2022-10-16T19:09:18;17.30;99.90
7796;DHT22;3942;51.518;6.912;2022-10-16T19:14:20;17.40;99.90
7796;DHT22;3942;51.518;6.912;2022-10-16T19:39:34;17.40;99.90
7796;DHT22;3942;51.518;6.912;2022-10-16T19:44:35;17.40;99.90
7796;DHT22;3942;51.518;6.912;2022-10-16T19:49:39;17.50;99.90
7796;DHT22;3942;51.518;6.912;2022-10-16T19:54:41;17.50;99.90
7796;DHT22;3942;51.518;6.912;2022-10-16T20:09:48;17.60;99.90
7796;DHT22;3942;51.518;6.912;2022-10-16T20:14:50;17.50;99.90
7796;DHT22;3942;51.518;6.912;2022-10-16T20:19:53;17.50;99.90
7796;DHT22;3942;51.518;6.912;2022-10-16T20:24:55;17.40;99.90
7796;DHT22;3942;51.518;6.912;2022-10-16T20:29:57;17.50;99.90
7796;DHT22;3942;51.518;6.912;2022-10-16T20:35:00;17.60;99.90
7796;DHT22;3942;51.518;6.912;2022-10-16T20:40:03;17.60;99.90
7796;DHT22;3942;51.518;6.912;2022-10-16T20:50:09;17.70;99.90
7796;DHT22;3942;51.518;6.912;2022-10-16T20:55:11;17.70;99.90
7796;DHT22;3942;51.518;6.912;2022-10-16T21:00:16;17.70;99.90
7796;DHT22;3942;51.518;6.912;2022-10-16T21:10:21;17.70;99.90
7796;DHT22;3942;51.518;6.912;2022-10-16T21:15:23;17.70;99.90
7796;DHT22;3942;51.518;6.912;2022-10-16T21:20:27;17.70;99.90
7796;DHT22;3942;51.518;6.912;2022-10-16T21:25:28;17.70;99.90
7796;DHT22;3942;51.518;6.912;2022-10-16T21:30:30;17.80;99.90
7796;DHT22;3942;51.518;6.912;2022-10-16T21:45:38;17.80;99.90
7796;DHT22;3942;51.518;6.912;2022-10-16T21:50:46;17.90;99.90
7796;DHT22;3942;51.518;6.912;2022-10-16T21:55:48;17.90;99.90
7796;DHT22;3942;51.518;6.912;2022-10-16T22:00:50;18.00;99.90
7796;DHT22;3942;51.518;6.912;2022-10-16T22:05:53;18.10;99.90
7796;DHT22;3942;51.518;6.912;2022-10-16T22:11:02;18.00;99.90
7796;DHT22;3942;51.518;6.912;2022-10-16T22:16:04;18.10;99.90
7796;DHT22;3942;51.518;6.912;2022-10-16T22:21:08;18.20;99.90
7796;DHT22;3942;51.518;6.912;2022-10-16T22:26:11;18.30;99.90
7796;DHT22;3942;51.518;6.912;2022-10-16T22:31:13;18.10;99.90
7796;DHT22;3942;51.518;6.912;2022-10-16T22:36:16;18.10;99.90
7796;DHT22;3942;51.518;6.912;2022-10-16T22:41:19;18.20;99.90
7796;DHT22;3942;51.518;6.912;2022-10-16T22:46:22;18.30;99.90
7796;DHT22;3942;51.518;6.912;2022-10-16T22:51:26;18.20;99.90
7796;DHT22;3942;51.518;6.912;2022-10-16T22:56:28;18.40;99.90
7796;DHT22;3942;51.518;6.912;2022-10-16T23:01:34;18.40;99.90
7796;DHT22;3942;51.518;6.912;2022-10-16T23:06:37;18.30;99.90
7796;DHT22;3942;51.518;6.912;2022-10-16T23:11:39;18.30;99.90
7796;DHT22;3942;51.518;6.912;2022-10-16T23:16:41;18.30;99.90
7796;DHT22;3942;51.518;6.912;2022-10-16T23:21:44;18.20;99.90
7796;DHT22;3942;51.518;6.912;2022-10-16T23:31:48;18.30;99.90
7796;DHT22;3942;51.518;6.912;2022-10-16T23:36:51;18.20;99.90
7796;DHT22;3942;51.518;6.912;2022-10-16T23:46:55;18.10;99.90
7796;DHT22;3942;51.518;6.912;2022-10-16T23:51:58;18.20;99.90
